Time;durP1;ratioP1;P1;durP2;ratioP2;P2;SDS_P1;SDS_P2;PMS_P1;PMS_P2;Temp;Humidity;BMP_temperature;BMP_pressure;BME280_temperature;BME280_humidity;BME280_pressure;Samples;Min_cycle;Max_cycle;Signal;HPM_P1;HPM_P2
2021/05/25 00:01:46;;;;;;;1.22;1.15;;;;;;;9.52;85.92;93423.89;1851411;76;21581;-77
2021/05/25 00:04:12;;;;;;;3.77;1.37;;;;;;;9.38;86.28;93426.78;1849425;77;21000;-83
2021/05/25 00:06:39;;;;;;;2.65;1.50;;;;;;;9.27;86.76;93438.20;1856764;76;21052;-82
2021/05/25 00:09:06;;;;;;;2.17;1.10;;;;;;;9.26;87.04;93440.73;1862752;76;21095;-80
2021/05/25 00:11:32;;;;;;;6.37;1.50;;;;;;;9.27;87.38;93433.36;1848267;77;21087;-79
2021/05/25 00:14:02;;;;;;;3.10;1.22;;;;;;;9.21;87.49;93432.95;1849196;77;21651;-82
2021/05/25 00:16:28;;;;;;;3.45;1.37;;;;;;;9.20;87.58;93424.04;1862083;76;21853;-81
2021/05/25 00:18:57;;;;;;;2.98;1.25;;;;;;;9.26;87.56;93415.54;1866882;76;21617;-82
2021/05/25 00:21:23;;;;;;;2.20;1.60;;;;;;;9.29;87.37;93420.97;1866513;76;20977;-82
2021/05/25 00:23:49;;;;;;;4.83;2.50;;;;;;;9.29;87.31;93431.83;1866853;76;21534;-80
2021/05/25 00:26:17;;;;;;;17.82;8.93;;;;;;;9.30;87.52;93426.58;1867181;76;21068;-83
2021/05/25 00:28:44;;;;;;;7.05;4.10;;;;;;;9.33;87.38;93423.69;1852397;76;21789;-82
2021/05/25 00:31:10;;;;;;;2.77;2.50;;;;;;;9.38;87.35;93424.06;1849036;75;21103;-81
2021/05/25 00:33:37;;;;;;;5.40;2.50;;;;;;;9.42;87.13;93405.84;1854959;76;21052;-81
2021/05/25 00:36:09;;;;;;;2.40;2.20;;;;;;;9.48;87.02;93413.80;1866883;76;20897;-78
2021/05/25 00:38:32;;;;;;;3.37;1.42;;;;;;;9.53;86.47;93402.36;1866512;76;21525;-78
2021/05/25 00:40:59;;;;;;;3.25;1.80;;;;;;;9.57;85.70;93393.05;1851586;76;21052;-82
2021/05/25 00:43:28;;;;;;;2.12;1.50;;;;;;;9.61;85.21;93391.69;1848945;75;21079;-77
2021/05/25 00:45:53;;;;;;;4.45;1.87;;;;;;;9.58;85.24;93390.52;1856439;76;21005;-80
2021/05/25 00:48:19;;;;;;;5.08;2.17;;;;;;;9.57;85.21;93387.61;1863619;76;21799;-81
2021/05/25 00:50:46;;;;;;;5.72;2.30;;;;;;;9.54;85.35;93388.39;1849639;77;21759;-79
2021/05/25 00:53:13;;;;;;;2.15;1.37;;;;;;;9.50;85.47;93375.41;1847955;77;21137;-81
2021/05/25 00:55:40;;;;;;;2.87;1.50;;;;;;;9.49;85.41;93371.91;1860220;76;21052;-78
2021/05/25 00:58:09;;;;;;;2.92;1.00;;;;;;;9.47;85.25;93378.30;1856821;76;21043;-79
2021/05/25 01:00:42;;;;;;;2.65;1.85;;;;;;;9.43;85.34;93374.05;1848576;77;21045;-82
2021/05/25 01:03:10;;;;;;;1.10;1.10;;;;;;;9.36;85.35;93376.76;1849512;75;20980;-78
2021/05/25 01:05:38;;;;;;;1.62;1.50;;;;;;;9.30;85.50;93357.39;1866680;76;21060;-79
2021/05/25 01:08:05;;;;;;;1.72;1.62;;;;;;;9.26;85.41;93341.70;1851615;76;21534;-80
2021/05/25 01:10:37;;;;;;;4.53;1.50;;;;;;;9.24;85.42;93359.70;1849475;76;21036;-82
2021/05/25 01:13:07;;;;;;;1.30;1.12;;;;;;;9.21;85.61;93364.57;1855217;76;21056;-79
2021/05/25 01:15:33;;;;;;;3.33;1.35;;;;;;;9.09;86.05;93377.72;1865287;76;21052;-79
2021/05/25 01:18:01;;;;;;;2.85;1.00;;;;;;;9.00;86.34;93382.95;1865605;76;21076;-79
2021/05/25 01:20:30;;;;;;;3.25;1.42;;;;;;;8.97;86.68;93374.80;1865414;76;21155;-80
2021/05/25 01:22:57;;;;;;;2.83;1.22;;;;;;;8.93;86.66;93365.30;1865755;76;21029;-78
2021/05/25 01:25:23;;;;;;;1.62;1.42;;;;;;;8.93;86.76;93363.18;1865506;76;21579;-79
2021/05/25 01:27:53;;;;;;;1.35;1.22;;;;;;;8.93;86.58;93358.53;1866401;76;20989;-80
2021/05/25 01:30:21;;;;;;;1.32;1.00;;;;;;;8.91;86.32;93364.13;1870530;76;21734;-79
2021/05/25 01:32:47;;;;;;;1.60;1.50;;;;;;;8.85;86.65;93361.04;1866847;76;21048;-82
2021/05/25 01:35:14;;;;;;;3.30;1.02;;;;;;;8.81;86.84;93362.97;1851682;76;21025;-80
2021/05/25 01:37:40;;;;;;;1.17;1.00;;;;;;;8.81;86.88;93358.91;1849532;77;21060;-80
2021/05/25 01:40:08;;;;;;;2.05;1.00;;;;;;;8.78;86.84;93354.83;1856362;76;21044;-79
2021/05/25 01:42:36;;;;;;;2.08;1.30;;;;;;;8.73;86.82;93350.56;1864591;76;21225;-79
2021/05/25 01:45:06;;;;;;;1.22;1.07;;;;;;;8.68;86.81;93343.56;1849539;77;21638;-78
2021/05/25 01:47:34;;;;;;;2.22;0.90;;;;;;;8.65;86.84;93353.84;1849187;76;21526;-81
2021/05/25 01:50:14;;;;;;;3.47;1.27;;;;;;;8.62;86.84;93359.25;1862114;75;20991;-81
2021/05/25 01:52:56;;;;;;;2.80;1.10;;;;;;;8.59;87.04;93357.30;1857377;76;20976;-80
2021/05/25 01:55:42;;;;;;;2.25;1.15;;;;;;;8.45;87.42;93356.09;1853058;74;21637;-82
2021/05/25 01:58:20;;;;;;;2.35;1.00;;;;;;;8.35;88.00;93352.77;1850528;76;21033;-81
2021/05/25 02:00:56;;;;;;;3.52;1.20;;;;;;;8.35;88.21;93342.48;1861420;76;21480;-80
2021/05/25 02:03:22;;;;;;;2.33;1.45;;;;;;;8.38;88.00;93336.33;1865956;76;20969;-82
2021/05/25 02:05:49;;;;;;;2.47;1.00;;;;;;;8.38;87.87;93326.84;1849833;77;20981;-77
2021/05/25 02:08:17;;;;;;;1.72;1.10;;;;;;;8.35;87.47;93332.44;1849022;75;21676;-77
2021/05/25 02:10:49;;;;;;;3.83;1.57;;;;;;;8.28;87.48;93335.12;1859049;75;20894;-77
2021/05/25 02:13:21;;;;;;;1.17;1.07;;;;;;;8.25;87.80;93331.82;1860023;76;21049;-80
2021/05/25 02:15:50;;;;;;;1.72;1.10;;;;;;;8.25;87.77;93326.41;1849949;77;21753;-79
2021/05/25 02:18:23;;;;;;;2.67;1.30;;;;;;;8.16;87.92;93327.32;1849381;76;21068;-79
2021/05/25 02:20:53;;;;;;;3.12;1.25;;;;;;;8.12;88.35;93330.02;1866272;76;21119;-78
2021/05/25 02:23:20;;;;;;;0.63;0.63;;;;;;;8.19;88.28;93335.46;1853196;76;21060;-78
2021/05/25 02:25:47;;;;;;;0.85;0.85;;;;;;;8.17;88.00;93335.66;1853954;75;21023;-81
2021/05/25 02:28:13;;;;;;;1.85;1.00;;;;;;;8.10;88.22;93343.17;1857878;75;21059;-80
2021/05/25 02:30:40;;;;;;;3.52;1.45;;;;;;;8.02;88.41;93337.54;1858053;75;21024;-78
2021/05/25 02:33:09;;;;;;;3.58;1.32;;;;;;;7.97;88.82;93333.83;1849465;77;21048;-80
2021/05/25 02:35:36;;;;;;;1.50;1.40;;;;;;;7.95;89.07;93338.28;1862782;76;21073;-79
2021/05/25 02:38:04;;;;;;;2.00;1.42;;;;;;;7.99;89.14;93335.59;1865524;75;21119;-78
2021/05/25 02:40:31;;;;;;;1.30;1.20;;;;;;;8.06;88.91;93326.14;1858740;76;21024;-81
2021/05/25 02:42:58;;;;;;;3.22;1.10;;;;;;;8.11;88.77;93327.12;1848094;76;21736;-81
2021/05/25 02:45:25;;;;;;;1.87;1.20;;;;;;;8.11;88.61;93324.41;1848044;77;21083;-81
2021/05/25 02:47:51;;;;;;;3.77;1.00;;;;;;;8.12;88.68;93327.31;1863832;76;21025;-81
2021/05/25 02:50:20;;;;;;;0.95;0.75;;;;;;;8.14;88.68;93333.72;1866319;76;21025;-80
2021/05/25 02:52:49;;;;;;;1.15;1.02;;;;;;;8.18;88.55;93329.86;1866854;76;21075;-81
2021/05/25 02:55:20;;;;;;;1.90;1.35;;;;;;;8.22;88.47;93327.16;1862410;76;21068;-79
2021/05/25 02:57:48;;;;;;;3.15;1.30;;;;;;;8.24;88.40;93319.44;1849080;75;22182;-81
2021/05/25 03:00:21;;;;;;;4.30;1.20;;;;;;;8.30;88.57;93324.67;1849611;77;20965;-79
2021/05/25 03:02:50;;;;;;;5.97;1.55;;;;;;;8.36;88.71;93335.92;1864861;75;28099;-83
2021/05/25 03:05:17;;;;;;;2.35;1.42;;;;;;;8.41;88.70;93332.86;1866933;76;21609;-81
2021/05/25 03:07:44;;;;;;;2.42;1.60;;;;;;;8.50;88.60;93318.38;1859822;76;21083;-79
2021/05/25 03:10:14;;;;;;;1.65;1.55;;;;;;;8.59;88.37;93330.97;1848451;77;21103;-80
2021/05/25 03:12:41;;;;;;;1.55;1.10;;;;;;;8.67;88.13;93341.25;1849467;77;20980;-82
2021/05/25 03:15:11;;;;;;;2.83;2.00;;;;;;;8.70;87.70;93331.77;1866502;76;21154;-81
2021/05/25 03:17:39;;;;;;;1.80;1.22;;;;;;;8.75;87.44;93327.90;1866935;75;20964;-80
2021/05/25 03:20:07;;;;;;;5.33;1.10;;;;;;;8.73;86.93;93323.45;1857648;76;21016;-78
2021/05/25 03:22:33;;;;;;;4.28;1.32;;;;;;;8.69;86.99;93323.45;1852118;76;21043;-78
2021/05/25 03:25:00;;;;;;;5.08;1.27;;;;;;;8.72;86.95;93335.44;1853505;77;20997;-81
2021/05/25 03:27:26;;;;;;;1.57;1.47;;;;;;;8.75;86.84;93363.91;1861422;77;21032;-81
2021/05/25 03:29:53;;;;;;;6.47;1.60;;;;;;;8.75;87.02;93381.53;1829767;77;21472;-79
2021/05/25 03:32:19;;;;;;;2.27;1.98;;;;;;;8.77;87.31;93408.28;1824501;78;21057;-78
2021/05/25 03:34:47;;;;;;;3.15;2.08;;;;;;;8.84;87.09;93436.77;1837872;77;21984;-78
2021/05/25 03:37:14;;;;;;;3.02;1.35;;;;;;;8.84;86.55;93436.77;1851961;75;20961;-79
2021/05/25 03:39:40;;;;;;;2.10;1.65;;;;;;;8.85;85.98;93422.05;1866882;76;21518;-83
2021/05/25 03:42:08;;;;;;;1.98;1.40;;;;;;;8.90;85.62;93443.36;1851112;76;21080;-78
2021/05/25 03:44:36;;;;;;;1.77;1.32;;;;;;;8.96;85.04;93422.84;1849580;76;21017;-79
2021/05/25 03:47:02;;;;;;;8.28;1.98;;;;;;;9.03;84.93;93425.36;1857080;76;21096;-78
2021/05/25 03:49:28;;;;;;;1.98;1.62;;;;;;;9.08;84.53;93426.36;1863378;76;21522;-80
2021/05/25 03:51:55;;;;;;;1.70;1.60;;;;;;;9.14;85.01;93425.59;1849813;77;21531;-82
2021/05/25 03:54:30;;;;;;;1.98;1.80;;;;;;;9.20;84.99;93415.13;1849496;76;21191;-83
2021/05/25 03:57:07;;;;;;;1.72;1.20;;;;;;;9.27;85.01;93414.37;1860113;76;21067;-80
2021/05/25 03:59:24;;;;;;;2.67;1.50;;;;;;;9.31;84.96;93405.06;1852873;76;21077;-76
2021/05/25 04:01:51;;;;;;;3.22;1.47;;;;;;;9.36;84.76;93397.88;1849441;77;20979;-78
2021/05/25 04:04:18;;;;;;;3.40;1.95;;;;;;;9.38;83.82;93403.71;1851159;76;21037;-77
2021/05/25 04:06:44;;;;;;;4.00;1.57;;;;;;;9.39;83.53;93391.69;1867136;76;20973;-82
2021/05/25 04:09:12;;;;;;;3.27;2.20;;;;;;;9.35;82.72;93371.91;1851774;76;21055;-80
2021/05/25 04:11:40;;;;;;;1.52;1.42;;;;;;;9.35;82.94;93335.87;1848947;77;21122;-79
2021/05/25 04:14:08;;;;;;;3.72;2.47;;;;;;;9.32;84.06;93330.63;1856900;76;21000;-81
2021/05/25 04:16:35;;;;;;;4.97;3.37;;;;;;;9.26;84.66;93322.70;1863786;76;20973;-80
2021/05/25 04:19:04;;;;;;;3.17;2.60;;;;;;;9.23;85.41;93299.05;1849635;77;21522;-79
2021/05/25 04:21:32;;;;;;;6.95;4.30;;;;;;;9.23;86.12;93271.34;1857795;76;21155;-80
2021/05/25 04:23:59;;;;;;;6.12;3.90;;;;;;;9.24;86.04;93254.47;1851650;76;21839;-79
2021/05/25 04:26:27;;;;;;;3.25;2.75;;;;;;;9.29;86.08;93231.59;1857738;76;21322;-80
2021/05/25 04:28:54;;;;;;;2.27;2.15;;;;;;;9.35;86.35;93227.33;1860718;76;21052;-81
2021/05/25 04:31:21;;;;;;;2.17;1.90;;;;;;;9.33;86.03;93229.08;1847934;75;21110;-82
2021/05/25 04:33:47;;;;;;;2.55;1.52;;;;;;;9.33;86.68;93226.95;1848083;77;21441;-81
2021/05/25 04:36:15;;;;;;;2.98;1.25;;;;;;;9.34;86.40;93222.48;1862113;76;21118;-82
2021/05/25 04:38:42;;;;;;;1.85;1.05;;;;;;;9.32;86.51;93211.23;1869706;75;21028;-79
2021/05/25 04:41:08;;;;;;;2.58;1.00;;;;;;;9.31;86.96;93210.28;1859765;76;21055;-82
2021/05/25 04:43:34;;;;;;;3.22;2.92;;;;;;;9.35;87.33;93216.47;1848888;77;21541;-78
2021/05/25 04:46:01;;;;;;;4.70;2.12;;;;;;;9.43;87.93;93230.20;1849803;77;20956;-82
2021/05/25 04:48:27;;;;;;;4.60;2.95;;;;;;;9.48;87.01;93220.33;1864295;75;21068;-80
2021/05/25 04:50:54;;;;;;;2.77;2.02;;;;;;;9.50;86.89;93227.47;1855213;76;22273;-80
2021/05/25 04:53:21;;;;;;;2.08;1.90;;;;;;;9.55;86.94;93217.56;1848840;75;20969;-80
2021/05/25 04:55:48;;;;;;;2.85;2.22;;;;;;;9.62;86.77;93222.97;1852093;76;21183;-79
2021/05/25 04:58:14;;;;;;;2.77;2.58;;;;;;;9.68;86.12;93224.70;1866953;76;21458;-78
2021/05/25 05:00:40;;;;;;;2.05;1.72;;;;;;;9.71;85.93;93230.72;1850555;76;21067;-81
2021/05/25 05:03:07;;;;;;;8.28;2.80;;;;;;;9.75;85.93;93225.27;1847754;77;21314;-81
2021/05/25 05:05:33;;;;;;;2.52;1.80;;;;;;;9.79;85.24;93221.37;1857323;76;21111;-81
2021/05/25 05:08:00;;;;;;;4.67;2.72;;;;;;;9.82;84.04;93216.52;1865935;76;21579;-80
2021/05/25 05:10:27;;;;;;;4.90;3.08;;;;;;;9.86;84.06;93211.84;1866988;76;21056;-79
2021/05/25 05:12:55;;;;;;;7.40;4.85;;;;;;;9.94;84.67;93209.86;1815188;79;22182;-77
2021/05/25 05:15:21;;;;;;;11.28;7.08;;;;;;;10.05;84.92;93213.30;1854716;76;20985;-81
2021/05/25 05:17:50;;;;;;;5.00;3.62;;;;;;;10.23;84.85;93214.56;1866669;76;21008;-76
2021/05/25 05:20:17;;;;;;;2.60;1.92;;;;;;;10.49;83.91;93215.18;1866615;76;21601;-80
2021/05/25 05:22:43;;;;;;;2.60;2.00;;;;;;;10.74;81.99;93225.89;1865604;76;21217;-77
2021/05/25 05:25:11;;;;;;;2.12;1.50;;;;;;;10.97;80.69;93223.36;1849164;77;21055;-81
2021/05/25 05:27:38;;;;;;;4.40;1.85;;;;;;;11.17;80.34;93220.88;1856167;75;21043;-81
2021/05/25 05:30:06;;;;;;;5.50;2.10;;;;;;;11.34;79.63;93217.77;1859864;77;21010;-80
2021/05/25 05:32:33;;;;;;;5.70;2.30;;;;;;;11.48;78.60;93215.50;1859464;76;21052;-77
2021/05/25 05:35:00;;;;;;;1.90;1.62;;;;;;;11.58;78.12;93211.28;1857307;77;21272;-77
2021/05/25 05:37:26;;;;;;;2.77;1.77;;;;;;;11.68;77.84;93210.98;1846390;77;21098;-80
2021/05/25 05:39:52;;;;;;;4.97;1.52;;;;;;;11.76;75.98;93211.67;1847710;77;21079;-80
2021/05/25 05:42:19;;;;;;;2.42;2.22;;;;;;;11.82;76.43;93217.64;1859519;76;21058;-81
2021/05/25 05:44:46;;;;;;;4.10;2.10;;;;;;;11.85;74.75;93216.86;1857199;76;21103;-79
2021/05/25 05:47:12;;;;;;;2.77;2.02;;;;;;;11.85;74.49;93227.75;1847004;77;21032;-82
2021/05/25 05:49:39;;;;;;;3.70;2.40;;;;;;;11.89;74.59;93222.27;1847279;77;21079;-78
2021/05/25 05:52:06;;;;;;;2.83;1.92;;;;;;;11.94;74.45;93210.91;1865754;76;21107;-77
2021/05/25 05:54:33;;;;;;;2.45;1.80;;;;;;;12.00;74.17;93204.39;1865918;76;21118;-83
2021/05/25 05:57:00;;;;;;;2.20;2.00;;;;;;;12.05;74.54;93206.69;1857024;76;21056;-79
2021/05/25 05:59:26;;;;;;;3.12;2.10;;;;;;;12.09;74.79;93210.14;1850615;74;21382;-78
2021/05/25 06:01:53;;;;;;;3.30;2.42;;;;;;;12.17;75.28;93219.76;1856807;75;21143;-77
2021/05/25 06:04:19;;;;;;;5.20;1.90;;;;;;;12.33;74.58;93219.16;1848392;77;21146;-79
2021/05/25 06:06:45;;;;;;;3.35;1.80;;;;;;;12.59;73.92;93217.61;1862945;76;21467;-78
2021/05/25 06:09:13;;;;;;;3.85;2.40;;;;;;;12.86;73.49;93206.67;1866924;76;21006;-79
2021/05/25 06:11:40;;;;;;;4.53;2.55;;;;;;;13.13;72.26;93209.37;1860112;76;21648;-77
2021/05/25 06:14:07;;;;;;;4.05;2.35;;;;;;;13.34;71.05;93206.88;1848743;77;21096;-80
2021/05/25 06:16:35;;;;;;;5.80;2.50;;;;;;;13.52;71.42;93210.06;1847599;77;21107;-80
2021/05/25 06:19:01;;;;;;;2.95;1.77;;;;;;;13.64;70.13;93202.44;1864634;76;20886;-78
2021/05/25 06:21:28;;;;;;;2.40;1.72;;;;;;;13.71;69.43;93207.77;1854468;76;21036;-79
2021/05/25 06:23:54;;;;;;;2.12;1.75;;;;;;;13.81;69.82;93201.33;1848820;76;21087;-78
2021/05/25 06:26:21;;;;;;;2.00;1.70;;;;;;;13.93;69.60;93206.76;1852182;76;21103;-79
2021/05/25 06:28:48;;;;;;;4.03;2.17;;;;;;;14.05;69.11;93198.67;1866573;76;21585;-80
2021/05/25 06:31:15;;;;;;;2.65;2.45;;;;;;;14.18;67.38;93197.45;1849941;76;21044;-83
2021/05/25 06:33:41;;;;;;;4.60;2.58;;;;;;;14.26;66.96;93192.60;1854459;75;21079;-79
2021/05/25 06:36:08;;;;;;;3.40;2.27;;;;;;;14.44;67.20;93185.34;1852325;76;21059;-83
2021/05/25 06:38:36;;;;;;;1.87;1.77;;;;;;;14.68;65.79;93177.81;1853497;76;21594;-78
2021/05/25 06:41:02;;;;;;;2.12;1.80;;;;;;;14.90;64.55;93175.34;1865816;76;21049;-81
2021/05/25 06:43:29;;;;;;;3.10;2.00;;;;;;;15.04;63.15;93164.81;1848823;77;21119;-79
2021/05/25 06:45:55;;;;;;;2.72;1.37;;;;;;;15.18;62.90;93160.93;1847907;77;21656;-83
2021/05/25 06:48:21;;;;;;;2.55;1.60;;;;;;;15.40;62.71;93155.67;1858236;75;21044;-83
2021/05/25 06:50:48;;;;;;;2.27;1.27;;;;;;;15.68;62.20;93158.86;1860077;76;21071;-80
2021/05/25 06:53:16;;;;;;;3.02;1.50;;;;;;;15.95;60.93;93146.95;1847858;77;21482;-83
2021/05/25 06:55:43;;;;;;;1.42;1.20;;;;;;;16.27;62.35;93142.48;1848893;77;21787;-78
2021/05/25 06:58:09;;;;;;;2.12;1.55;;;;;;;16.65;59.99;93138.98;1862510;75;21023;-78
2021/05/25 07:00:37;;;;;;;2.80;2.08;;;;;;;16.94;58.51;93138.26;1854334;76;21084;-81
2021/05/25 07:03:04;;;;;;;2.37;1.95;;;;;;;17.19;57.88;93140.20;1847493;76;21043;-78
2021/05/25 07:05:30;;;;;;;4.20;1.60;;;;;;;17.38;59.06;93132.11;1849458;76;21163;-79
2021/05/25 07:07:57;;;;;;;4.00;1.62;;;;;;;17.57;59.23;93135.17;1864819;76;21046;-79
2021/05/25 07:10:24;;;;;;;3.17;1.75;;;;;;;17.74;57.35;93134.36;1847896;76;21512;-85
2021/05/25 07:12:51;;;;;;;2.42;1.77;;;;;;;17.78;56.17;93131.52;1847294;77;21106;-81
2021/05/25 07:15:19;;;;;;;1.32;1.25;;;;;;;17.75;56.66;93129.62;1855287;75;21076;-79
2021/05/25 07:17:56;;;;;;;2.37;1.80;;;;;;;17.75;58.03;93118.63;1864960;76;21089;-79
2021/05/25 07:20:18;;;;;;;2.35;1.75;;;;;;;17.85;59.21;93115.52;1863529;76;21032;-78
2021/05/25 07:22:51;;;;;;;2.30;1.77;;;;;;;18.10;58.44;93110.48;1849343;77;20965;-77
2021/05/25 07:25:14;;;;;;;2.77;1.72;;;;;;;18.38;56.94;93103.12;1847861;76;21130;-77
2021/05/25 07:27:40;;;;;;;3.17;1.40;;;;;;;18.72;56.08;93104.19;1857973;75;21622;-84
2021/05/25 07:30:08;;;;;;;2.42;1.85;;;;;;;19.09;54.21;93109.17;1860410;76;21087;-80
2021/05/25 07:32:34;;;;;;;3.12;2.12;;;;;;;19.38;53.87;93100.48;1849158;77;21055;-78
2021/05/25 07:35:01;;;;;;;2.10;1.90;;;;;;;19.69;53.68;93102.34;1849269;77;20969;-78
2021/05/25 07:37:27;;;;;;;4.22;2.17;;;;;;;20.07;53.17;93106.58;1863306;76;21060;-77
2021/05/25 07:39:53;;;;;;;3.33;1.90;;;;;;;20.28;52.66;93100.70;1864986;75;20985;-79
2021/05/25 07:42:20;;;;;;;3.10;1.85;;;;;;;20.46;52.22;93104.78;1834623;77;21072;-78
2021/05/25 07:44:47;;;;;;;3.10;1.82;;;;;;;20.64;52.03;93116.39;1856079;77;21128;-80
2021/05/25 07:47:14;;;;;;;2.17;2.00;;;;;;;20.84;51.67;93111.72;1849456;77;21621;-81
2021/05/25 07:49:40;;;;;;;5.62;2.25;;;;;;;21.01;51.02;93096.25;1864296;76;21040;-79
2021/05/25 07:52:08;;;;;;;3.85;2.00;;;;;;;21.25;51.19;93093.50;1866129;75;21083;-80
2021/05/25 07:54:36;;;;;;;4.15;1.90;;;;;;;21.42;49.86;93099.39;1866350;75;21016;-78
2021/05/25 07:57:04;;;;;;;3.83;2.08;;;;;;;21.50;50.93;93097.03;1862188;76;20972;-79
2021/05/25 07:59:31;;;;;;;3.22;1.80;;;;;;;21.61;51.01;93096.48;1847628;75;21107;-82
2021/05/25 08:01:57;;;;;;;4.33;2.05;;;;;;;21.70;50.35;93093.63;1846130;77;21063;-79
2021/05/25 08:04:25;;;;;;;4.72;3.00;;;;;;;21.78;49.80;93086.52;1860526;75;21216;-80
2021/05/25 08:06:51;;;;;;;6.22;2.58;;;;;;;21.83;49.33;93092.13;1854566;76;21674;-78
2021/05/25 08:09:17;;;;;;;3.58;1.92;;;;;;;21.85;48.19;93090.27;1849576;77;21867;-81
2021/05/25 08:11:44;;;;;;;3.37;2.30;;;;;;;21.82;48.67;93090.61;1854500;76;21189;-80
2021/05/25 08:14:11;;;;;;;3.17;1.30;;;;;;;21.90;48.99;93097.92;1846722;77;21032;-80
2021/05/25 08:16:39;;;;;;;3.60;2.15;;;;;;;22.01;47.74;93093.21;1861317;75;21716;-78
2021/05/25 08:21:37;;;;;;;1.95;1.40;;;;;;;22.32;47.57;93087.22;1864459;76;21075;-79
2021/05/25 08:24:08;;;;;;;5.83;1.32;;;;;;;22.48;47.04;93088.09;1864596;76;21618;-81
2021/05/25 08:26:36;;;;;;;6.25;1.45;;;;;;;22.52;46.19;93083.75;1864359;76;21050;-80
2021/05/25 08:29:03;;;;;;;3.87;1.80;;;;;;;22.53;46.40;93076.98;1864579;76;21127;-78
2021/05/25 08:31:30;;;;;;;5.17;1.70;;;;;;;22.63;46.40;93077.00;1851806;76;21103;-80
2021/05/25 08:33:56;;;;;;;4.20;1.32;;;;;;;22.73;45.41;93068.72;1847573;75;21115;-83
2021/05/25 08:36:23;;;;;;;2.83;1.20;;;;;;;22.87;44.44;93071.91;1850897;75;21068;-82
2021/05/25 08:38:49;;;;;;;6.28;1.80;;;;;;;23.03;45.39;93077.73;1864216;76;21598;-80
2021/05/25 08:41:16;;;;;;;8.08;3.72;;;;;;;23.13;45.53;93072.05;1864962;76;21617;-81
2021/05/25 08:43:43;;;;;;;8.33;3.60;;;;;;;23.21;45.11;93079.49;1851340;76;21008;-80
2021/05/25 08:46:09;;;;;;;27.13;14.15;;;;;;;23.27;44.92;93077.53;1848939;77;21012;-80
2021/05/25 08:48:40;;;;;;;5.08;2.75;;;;;;;23.35;45.95;93074.35;1852778;76;21040;-79
2021/05/25 08:51:07;;;;;;;8.35;2.70;;;;;;;23.39;44.54;93079.82;1863961;76;21605;-79
2021/05/25 08:53:34;;;;;;;8.58;4.55;;;;;;;23.37;45.43;93073.25;1848477;77;21123;-80
2021/05/25 08:56:01;;;;;;;10.55;4.72;;;;;;;23.33;46.03;93079.01;1846941;75;21696;-81
2021/05/25 08:58:28;;;;;;;6.95;3.33;;;;;;;23.29;45.02;93080.47;1859049;76;21040;-79
2021/05/25 09:00:55;;;;;;;7.03;2.85;;;;;;;;;;1856859;76;21087;-78
2021/05/25 09:03:21;;;;;;;3.05;2.12;;;;;;;23.16;45.83;93076.00;1846714;77;21051;-79
2021/05/25 09:05:55;;;;;;;12.00;1.82;;;;;;;23.11;43.89;93069.02;1847161;77;21035;-79
2021/05/25 09:08:22;;;;;;;9.13;1.95;;;;;;;22.96;43.48;93064.28;1865116;76;21578;-80
2021/05/25 09:10:50;;;;;;;5.30;1.47;;;;;;;22.75;43.55;93064.06;1865596;76;21056;-79
2021/05/25 09:13:21;;;;;;;8.08;2.52;;;;;;;22.54;43.96;93079.27;1864621;76;21084;-79
2021/05/25 09:16:03;;;;;;;3.65;1.92;;;;;;;22.34;45.30;93075.65;1858019;76;21040;-79
2021/05/25 09:18:31;;;;;;;7.92;1.77;;;;;;;22.19;45.48;93077.04;1845392;76;22219;-78
2021/05/25 09:23:43;;;;;;;6.53;1.62;;;;;;;21.92;44.45;93079.44;1867692;76;21629;-80
2021/05/25 09:26:19;;;;;;;5.53;1.35;;;;;;;21.79;44.76;93073.57;1867331;76;21593;-80
2021/05/25 09:28:59;;;;;;;6.72;1.45;;;;;;;21.66;45.81;93079.22;1836464;76;21068;-80
2021/05/25 09:31:45;;;;;;;4.45;1.70;;;;;;;21.53;46.24;93076.10;1818737;77;21652;-79
2021/05/25 09:34:17;;;;;;;5.20;1.82;;;;;;;21.41;46.15;93084.04;1841334;74;21602;-81
2021/05/25 09:37:06;;;;;;;6.10;1.35;;;;;;;21.33;45.60;93084.27;1853830;77;21121;-80
2021/05/25 09:39:44;;;;;;;5.55;1.67;;;;;;;21.26;45.21;93086.73;1850182;75;21351;-79
2021/05/25 09:42:12;;;;;;;8.60;1.95;;;;;;;21.26;47.24;93088.73;1863828;76;21032;-80
2021/05/25 09:45:03;;;;;;;4.58;1.87;;;;;;;21.23;46.36;93079.38;1864025;76;21103;-78
2021/05/25 09:47:36;;;;;;;3.62;2.20;;;;;;;21.21;45.86;93081.86;1864599;76;21249;-80
2021/05/25 09:50:04;;;;;;;5.85;1.87;;;;;;;21.17;46.57;93078.48;1850170;76;21036;-79
2021/05/25 09:52:31;;;;;;;9.90;2.58;;;;;;;21.17;46.73;93074.95;1847316;75;21059;-79
2021/05/25 09:55:11;;;;;;;4.17;1.92;;;;;;;21.15;46.67;93080.20;1849714;77;21119;-78
2021/05/25 09:57:46;;;;;;;6.08;1.72;;;;;;;21.16;46.89;93080.34;1850876;77;21191;-78
2021/05/25 10:02:40;;;;;;;2.70;2.00;;;;;;;21.19;45.94;93082.17;1859331;76;20221;-80
2021/05/25 10:05:09;;;;;;;5.65;1.95;;;;;;;21.22;46.73;93079.23;1862612;76;21056;-80
2021/05/25 10:07:36;;;;;;;10.80;1.75;;;;;;;21.26;46.10;93076.29;1863877;76;21672;-82
2021/05/25 10:10:05;;;;;;;5.33;1.20;;;;;;;21.31;46.22;93068.09;1864521;76;21072;-79
2021/05/25 10:12:31;;;;;;;5.45;1.72;;;;;;;21.34;46.29;93066.42;1863016;76;21119;-79
2021/05/25 10:15:00;;;;;;;9.85;2.37;;;;;;;21.31;46.62;93067.33;1846335;77;21048;-79
2021/05/25 10:17:44;;;;;;;4.10;1.37;;;;;;;21.32;46.41;93062.70;1846626;75;21098;-82
2021/05/25 10:19:58;;;;;;;9.28;2.35;;;;;;;21.34;46.35;93062.28;1855506;76;21056;-80
2021/05/25 10:22:25;;;;;;;7.28;2.10;;;;;;;21.28;46.63;93059.36;1856637;76;21059;-79
2021/05/25 10:24:52;;;;;;;5.80;1.62;;;;;;;21.21;46.63;93066.66;1846137;77;21767;-79
2021/05/25 10:27:18;;;;;;;5.35;2.15;;;;;;;21.20;46.79;93062.96;1820056;77;21075;-83
2021/05/25 10:29:45;;;;;;;12.07;2.40;;;;;;;21.19;45.85;93060.06;1863772;76;21164;-80
2021/05/25 10:32:23;;;;;;;5.40;1.80;;;;;;;21.21;46.33;93055.59;1851059;76;21665;-78
2021/05/25 10:34:52;;;;;;;7.70;1.60;;;;;;;21.26;46.58;93054.17;1851792;75;21098;-83
2021/05/25 10:37:21;;;;;;;8.03;1.95;;;;;;;21.31;45.39;93045.97;1852607;76;21063;-80
2021/05/25 10:39:55;;;;;;;5.70;2.00;;;;;;;21.33;46.51;93047.69;1823969;76;21236;-78
2021/05/25 10:42:25;;;;;;;4.22;1.98;;;;;;;21.35;46.39;93045.82;1869779;76;21587;-77
2021/05/25 10:44:57;;;;;;;5.22;1.80;;;;;;;21.38;46.27;93031.05;1847615;76;21151;-79
2021/05/25 10:47:34;;;;;;;11.25;2.42;;;;;;;21.41;46.33;93039.79;1854401;77;21102;-80
2021/05/25 10:50:14;;;;;;;5.78;2.05;;;;;;;21.51;46.80;93052.91;1856059;76;21075;-80
2021/05/25 10:52:41;;;;;;;;;;;;;;;21.67;46.86;93040.65;1855721;77;21067;-81
2021/05/25 10:55:07;;;;;;;6.97;2.17;;;;;;;21.70;45.92;93039.08;1853579;76;20225;-77
2021/05/25 10:57:47;;;;;;;7.75;2.17;;;;;;;21.72;47.33;93043.50;1867262;76;20976;-80
2021/05/25 11:00:26;;;;;;;6.92;2.05;;;;;;;21.87;47.07;93037.98;1813357;79;21105;-80
2021/05/25 11:02:59;;;;;;;11.03;1.98;;;;;;;22.03;44.47;93030.57;1821829;78;21085;-78
2021/05/25 11:05:38;;;;;;;4.78;1.50;;;;;;;22.10;46.12;93028.67;1811985;78;21032;-79
2021/05/25 11:08:18;;;;;;;3.22;2.02;;;;;;;22.15;47.26;93021.09;1805872;77;21055;-76
2021/05/25 11:10:48;;;;;;;11.45;3.33;;;;;;;22.24;45.10;93019.00;1809437;77;21076;-77
2021/05/25 11:13:23;;;;;;;10.18;2.27;;;;;;;22.34;44.70;93013.33;1853404;77;21699;-79
2021/05/25 11:16:17;;;;;;;6.15;2.02;;;;;;;22.41;43.88;93012.31;1828502;76;21082;-79
2021/05/25 11:19:18;;;;;;;6.37;2.00;;;;;;;22.50;44.80;93014.23;1860544;77;21371;-78
2021/05/25 11:24:44;;;;;;;9.08;2.10;;;;;;;22.61;44.15;93017.78;1834609;78;21074;-77
2021/05/25 11:27:30;;;;;;;7.45;2.67;;;;;;;22.54;43.16;93021.09;1875511;76;21123;-78
2021/05/25 11:30:11;;;;;;;7.83;2.37;;;;;;;22.47;43.55;93023.49;1835264;76;21069;-78
2021/05/25 11:32:46;;;;;;;8.18;2.60;;;;;;;22.37;43.67;93018.67;1866592;76;21613;-80
2021/05/25 11:35:23;;;;;;;8.45;2.95;;;;;;;22.34;43.32;93014.13;1847007;76;21647;-78
2021/05/25 11:37:53;;;;;;;8.78;2.25;;;;;;;22.39;44.49;93023.75;1841098;76;21072;-79
2021/05/25 11:40:25;;;;;;;7.22;2.00;;;;;;;22.30;42.84;93010.76;1852494;76;21663;-76
2021/05/25 11:42:51;;;;;;;2.22;1.60;;;;;;;22.18;44.27;93012.59;1787283;79;21169;-80
2021/05/25 11:45:23;;;;;;;9.40;2.60;;;;;;;22.13;45.49;93019.41;1861744;76;21052;-80
2021/05/25 11:48:04;;;;;;;5.67;2.12;;;;;;;22.09;46.53;93024.38;1833442;76;21133;-81
2021/05/25 11:50:40;;;;;;;6.62;1.87;;;;;;;22.04;46.76;93025.80;1805266;78;21124;-85
2021/05/25 11:53:09;;;;;;;5.15;1.98;;;;;;;21.95;46.82;93019.75;1796439;78;21133;-82
2021/05/25 11:55:35;;;;;;;9.05;2.27;;;;;;;21.79;47.61;93035.45;1797911;78;21577;-79